sensor_id;sensor_type;location;lat;lon;timestamp;temperature;humidity
84173;DHT22;74302;40.122;18.310;2024-03-22T00:00:59;12.90;58.60
84173;DHT22;74302;40.122;18.310;2024-03-22T00:02:42;12.90;58.60
84173;DHT22;74302;40.122;18.310;2024-03-22T00:04:25;12.90;58.70
84173;DHT22;74302;40.122;18.310;2024-03-22T00:06:33;12.90;58.70
84173;DHT22;74302;40.122;18.310;2024-03-22T00:08:15;12.90;58.70
84173;DHT22;74302;40.122;18.310;2024-03-22T00:09:58;12.90;58.70
84173;DHT22;74302;40.122;18.310;2024-03-22T00:11:41;12.90;58.70
84173;DHT22;74302;40.122;18.310;2024-03-22T00:13:24;12.90;58.70
84173;DHT22;74302;40.122;18.310;2024-03-22T00:15:07;12.90;58.60
84173;DHT22;74302;40.122;18.310;2024-03-22T00:16:50;12.90;58.60
84173;DHT22;74302;40.122;18.310;2024-03-22T00:18:34;12.90;58.60
84173;DHT22;74302;40.122;18.310;2024-03-22T00:20:16;12.90;58.70
84173;DHT22;74302;40.122;18.310;2024-03-22T00:21:59;12.90;58.70
84173;DHT22;74302;40.122;18.310;2024-03-22T00:23:42;12.90;58.70
84173;DHT22;74302;40.122;18.310;2024-03-22T00:25:24;12.90;58.60
84173;DHT22;74302;40.122;18.310;2024-03-22T00:27:08;12.90;58.60
84173;DHT22;74302;40.122;18.310;2024-03-22T00:28:50;12.80;58.60
84173;DHT22;74302;40.122;18.310;2024-03-22T00:30:33;12.90;58.60
84173;DHT22;74302;40.122;18.310;2024-03-22T00:32:15;12.90;58.60
84173;DHT22;74302;40.122;18.310;2024-03-22T00:33:59;12.90;58.60
84173;DHT22;74302;40.122;18.310;2024-03-22T00:35:41;12.90;58.60
84173;DHT22;74302;40.122;18.310;2024-03-22T00:37:24;12.70;58.60
84173;DHT22;74302;40.122;18.310;2024-03-22T00:39:07;12.70;58.70
84173;DHT22;74302;40.122;18.310;2024-03-22T00:40:49;12.70;58.70
84173;DHT22;74302;40.122;18.310;2024-03-22T00:42:32;12.70;58.80
84173;DHT22;74302;40.122;18.310;2024-03-22T00:44:14;12.70;58.80
84173;DHT22;74302;40.122;18.310;2024-03-22T00:45:57;12.60;58.80
84173;DHT22;74302;40.122;18.310;2024-03-22T00:47:40;12.60;58.90
84173;DHT22;74302;40.122;18.310;2024-03-22T00:49:24;12.60;58.90
84173;DHT22;74302;40.122;18.310;2024-03-22T00:51:06;12.60;58.90
84173;DHT22;74302;40.122;18.310;2024-03-22T00:52:50;12.50;58.90
84173;DHT22;74302;40.122;18.310;2024-03-22T00:54:33;12.50;59.00
84173;DHT22;74302;40.122;18.310;2024-03-22T00:56:15;12.50;59.00
84173;DHT22;74302;40.122;18.310;2024-03-22T00:57:59;12.60;59.00
84173;DHT22;74302;40.122;18.310;2024-03-22T00:59:41;12.60;59.00
84173;DHT22;74302;40.122;18.310;2024-03-22T01:01:23;12.60;59.00
84173;DHT22;74302;40.122;18.310;2024-03-22T01:03:07;12.60;58.90
84173;DHT22;74302;40.122;18.310;2024-03-22T01:04:50;12.70;58.90
84173;DHT22;74302;40.122;18.310;2024-03-22T01:06:33;12.60;58.90
84173;DHT22;74302;40.122;18.310;2024-03-22T01:08:15;12.60;58.90
84173;DHT22;74302;40.122;18.310;2024-03-22T01:09:59;12.60;58.90
84173;DHT22;74302;40.122;18.310;2024-03-22T01:11:41;12.60;58.90
84173;DHT22;74302;40.122;18.310;2024-03-22T01:13:23;12.60;58.90
84173;DHT22;74302;40.122;18.310;2024-03-22T01:15:07;12.60;58.90
84173;DHT22;74302;40.122;18.310;2024-03-22T01:16:49;12.60;58.90
84173;DHT22;74302;40.122;18.310;2024-03-22T01:18:33;12.70;58.90
84173;DHT22;74302;40.122;18.310;2024-03-22T01:20:16;12.70;58.90
84173;DHT22;74302;40.122;18.310;2024-03-22T01:21:59;12.70;58.90
84173;DHT22;74302;40.122;18.310;2024-03-22T01:23:41;12.70;58.90
84173;DHT22;74302;40.122;18.310;2024-03-22T01:25:24;12.70;58.90
84173;DHT22;74302;40.122;18.310;2024-03-22T01:27:07;12.60;58.80
84173;DHT22;74302;40.122;18.310;2024-03-22T01:28:49;12.60;58.90
84173;DHT22;74302;40.122;18.310;2024-03-22T01:30:31;12.50;58.90
84173;DHT22;74302;40.122;18.310;2024-03-22T01:32:15;12.50;58.90
84173;DHT22;74302;40.122;18.310;2024-03-22T01:33:58;12.50;58.90
84173;DHT22;74302;40.122;18.310;2024-03-22T01:35:41;12.40;59.00
84173;DHT22;74302;40.122;18.310;2024-03-22T01:37:24;12.40;59.00
84173;DHT22;74302;40.122;18.310;2024-03-22T01:39:06;12.40;59.00
84173;DHT22;74302;40.122;18.310;2024-03-22T01:40:49;12.40;59.10
84173;DHT22;74302;40.122;18.310;2024-03-22T01:42:32;12.30;59.10
84173;DHT22;74302;40.122;18.310;2024-03-22T01:44:14;12.40;59.10
84173;DHT22;74302;40.122;18.310;2024-03-22T01:45:56;12.40;59.10
84173;DHT22;74302;40.122;18.310;2024-03-22T01:47:39;12.30;59.10
84173;DHT22;74302;40.122;18.310;2024-03-22T01:49:22;12.30;59.10
84173;DHT22;74302;40.122;18.310;2024-03-22T01:51:08;12.30;59.10
84173;DHT22;74302;40.122;18.310;2024-03-22T01:52:51;12.40;59.10
84173;DHT22;74302;40.122;18.310;2024-03-22T01:54:34;12.30;59.00
84173;DHT22;74302;40.122;18.310;2024-03-22T01:56:17;12.30;59.00
84173;DHT22;74302;40.122;18.310;2024-03-22T01:57:59;12.40;59.00
84173;DHT22;74302;40.122;18.310;2024-03-22T01:59:42;12.30;59.00
84173;DHT22;74302;40.122;18.310;2024-03-22T02:01:25;12.30;59.00
84173;DHT22;74302;40.122;18.310;2024-03-22T02:03:08;12.30;59.00
84173;DHT22;74302;40.122;18.310;2024-03-22T02:04:51;12.20;59.00
84173;DHT22;74302;40.122;18.310;2024-03-22T02:06:35;12.20;59.00
84173;DHT22;74302;40.122;18.310;2024-03-22T02:08:18;12.20;59.00
84173;DHT22;74302;40.122;18.310;2024-03-22T02:10:00;12.20;59.10
84173;DHT22;74302;40.122;18.310;2024-03-22T02:11:43;12.20;59.10
84173;DHT22;74302;40.122;18.310;2024-03-22T02:13:25;12.20;59.10
84173;DHT22;74302;40.122;18.310;2024-03-22T02:15:08;12.20;59.10
84173;DHT22;74302;40.122;18.310;2024-03-22T02:16:51;12.20;59.10
84173;DHT22;74302;40.122;18.310;2024-03-22T02:18:34;12.10;59.10
84173;DHT22;74302;40.122;18.310;2024-03-22T02:20:17;12.20;59.10
84173;DHT22;74302;40.122;18.310;2024-03-22T02:22:00;12.20;59.10
84173;DHT22;74302;40.122;18.310;2024-03-22T02:23:45;12.20;59.10
84173;DHT22;74302;40.122;18.310;2024-03-22T02:25:27;12.20;59.10
84173;DHT22;74302;40.122;18.310;2024-03-22T02:27:10;12.20;59.10
84173;DHT22;74302;40.122;18.310;2024-03-22T02:28:53;12.20;59.10
84173;DHT22;74302;40.122;18.310;2024-03-22T02:30:35;12.20;59.10
84173;DHT22;74302;40.122;18.310;2024-03-22T02:32:18;12.20;59.10
84173;DHT22;74302;40.122;18.310;2024-03-22T02:34:00;12.20;59.10
84173;DHT22;74302;40.122;18.310;2024-03-22T02:35:43;12.20;59.10
84173;DHT22;74302;40.122;18.310;2024-03-22T02:37:27;12.10;59.10
84173;DHT22;74302;40.122;18.310;2024-03-22T02:39:12;12.10;59.10
84173;DHT22;74302;40.122;18.310;2024-03-22T02:40:55;12.10;59.10
84173;DHT22;74302;40.122;18.310;2024-03-22T02:42:37;12.00;59.10
84173;DHT22;74302;40.122;18.310;2024-03-22T02:44:20;11.90;59.20
84173;DHT22;74302;40.122;18.310;2024-03-22T02:46:02;11.90;59.20
84173;DHT22;74302;40.122;18.310;2024-03-22T02:47:44;11.90;59.30
84173;DHT22;74302;40.122;18.310;2024-03-22T02:49:28;11.90;59.30
84173;DHT22;74302;40.122;18.310;2024-03-22T02:51:10;11.90;59.40
84173;DHT22;74302;40.122;18.310;2024-03-22T02:52:53;11.80;59.40
84173;DHT22;74302;40.122;18.310;2024-03-22T02:54:36;11.90;59.40
84173;DHT22;74302;40.122;18.310;2024-03-22T02:56:19;11.90;59.40
84173;DHT22;74302;40.122;18.310;2024-03-22T02:58:02;11.90;59.40
84173;DHT22;74302;40.122;18.310;2024-03-22T02:59:45;12.00;59.30
84173;DHT22;74302;40.122;18.310;2024-03-22T03:01:28;12.00;59.30
84173;DHT22;74302;40.122;18.310;2024-03-22T03:03:10;12.00;59.30
84173;DHT22;74302;40.122;18.310;2024-03-22T03:04:53;12.00;59.20
84173;DHT22;74302;40.122;18.310;2024-03-22T03:06:35;12.10;59.20
84173;DHT22;74302;40.122;18.310;2024-03-22T03:08:19;12.00;59.10
84173;DHT22;74302;40.122;18.310;2024-03-22T03:10:02;11.90;59.20
84173;DHT22;74302;40.122;18.310;2024-03-22T03:11:45;11.90;59.30
84173;DHT22;74302;40.122;18.310;2024-03-22T03:13:28;11.90;59.30
84173;DHT22;74302;40.122;18.310;2024-03-22T03:15:10;11.90;59.30
84173;DHT22;74302;40.122;18.310;2024-03-22T03:16:53;11.90;59.40
84173;DHT22;74302;40.122;18.310;2024-03-22T03:18:35;12.00;59.40
84173;DHT22;74302;40.122;18.310;2024-03-22T03:20:19;12.00;59.40
84173;DHT22;74302;40.122;18.310;2024-03-22T03:22:01;12.10;59.30
84173;DHT22;74302;40.122;18.310;2024-03-22T03:23:43;12.10;59.40
84173;DHT22;74302;40.122;18.310;2024-03-22T03:25:27;12.10;59.30
84173;DHT22;74302;40.122;18.310;2024-03-22T03:27:09;12.20;59.30
84173;DHT22;74302;40.122;18.310;2024-03-22T03:28:51;12.20;59.20
84173;DHT22;74302;40.122;18.310;2024-03-22T03:30:37;12.20;59.20
84173;DHT22;74302;40.122;18.310;2024-03-22T03:32:19;12.20;59.20
84173;DHT22;74302;40.122;18.310;2024-03-22T03:34:01;12.20;59.10
84173;DHT22;74302;40.122;18.310;2024-03-22T03:35:46;12.20;59.20
84173;DHT22;74302;40.122;18.310;2024-03-22T03:37:28;12.30;59.20
84173;DHT22;74302;40.122;18.310;2024-03-22T03:39:11;12.30;59.20
84173;DHT22;74302;40.122;18.310;2024-03-22T03:40:54;12.30;59.20
84173;DHT22;74302;40.122;18.310;2024-03-22T03:42:37;12.30;59.20
84173;DHT22;74302;40.122;18.310;2024-03-22T03:44:20;12.30;59.20
84173;DHT22;74302;40.122;18.310;2024-03-22T03:46:03;12.30;59.20
84173;DHT22;74302;40.122;18.310;2024-03-22T03:47:46;12.40;59.20
84173;DHT22;74302;40.122;18.310;2024-03-22T03:49:29;12.30;59.20
84173;DHT22;74302;40.122;18.310;2024-03-22T03:51:11;12.30;59.20
84173;DHT22;74302;40.122;18.310;2024-03-22T03:52:54;12.30;59.20
84173;DHT22;74302;40.122;18.310;2024-03-22T03:54:36;12.30;59.20
84173;DHT22;74302;40.122;18.310;2024-03-22T03:56:20;12.30;59.30
84173;DHT22;74302;40.122;18.310;2024-03-22T03:58:04;12.30;59.30
84173;DHT22;74302;40.122;18.310;2024-03-22T03:59:46;12.30;59.30
84173;DHT22;74302;40.122;18.310;2024-03-22T04:01:29;12.30;59.30
84173;DHT22;74302;40.122;18.310;2024-03-22T04:03:11;12.40;59.30
84173;DHT22;74302;40.122;18.310;2024-03-22T04:04:53;12.30;59.30
84173;DHT22;74302;40.122;18.310;2024-03-22T04:06:36;12.40;59.30
84173;DHT22;74302;40.122;18.310;2024-03-22T04:08:19;12.30;59.40
84173;DHT22;74302;40.122;18.310;2024-03-22T04:10:01;12.40;59.30
84173;DHT22;74302;40.122;18.310;2024-03-22T04:11:46;12.30;59.30
84173;DHT22;74302;40.122;18.310;2024-03-22T04:13:29;12.30;59.30
84173;DHT22;74302;40.122;18.310;2024-03-22T04:15:12;12.40;59.30
84173;DHT22;74302;40.122;18.310;2024-03-22T04:16:54;12.30;59.40
84173;DHT22;74302;40.122;18.310;2024-03-22T04:18:37;12.40;59.40
84173;DHT22;74302;40.122;18.310;2024-03-22T04:20:20;12.40;59.40
84173;DHT22;74302;40.122;18.310;2024-03-22T04:22:02;12.30;59.40
84173;DHT22;74302;40.122;18.310;2024-03-22T04:23:46;12.40;59.40
84173;DHT22;74302;40.122;18.310;2024-03-22T04:25:28;12.40;59.40
84173;DHT22;74302;40.122;18.310;2024-03-22T04:27:11;12.40;59.40
84173;DHT22;74302;40.122;18.310;2024-03-22T04:28:55;12.40;59.40
84173;DHT22;74302;40.122;18.310;2024-03-22T04:30:37;12.40;59.40
84173;DHT22;74302;40.122;18.310;2024-03-22T04:32:20;12.40;59.40
84173;DHT22;74302;40.122;18.310;2024-03-22T04:34:02;12.40;59.40
84173;DHT22;74302;40.122;18.310;2024-03-22T04:35:45;12.40;59.40
84173;DHT22;74302;40.122;18.310;2024-03-22T04:37:28;12.40;59.40
84173;DHT22;74302;40.122;18.310;2024-03-22T04:39:11;12.40;59.40
84173;DHT22;74302;40.122;18.310;2024-03-22T04:40:54;12.30;59.40
84173;DHT22;74302;40.122;18.310;2024-03-22T04:42:39;12.30;59.50
84173;DHT22;74302;40.122;18.310;2024-03-22T04:44:21;12.30;59.50
84173;DHT22;74302;40.122;18.310;2024-03-22T04:46:04;12.30;59.50
84173;DHT22;74302;40.122;18.310;2024-03-22T04:47:46;12.30;59.50
84173;DHT22;74302;40.122;18.310;2024-03-22T04:49:29;12.30;59.50
84173;DHT22;74302;40.122;18.310;2024-03-22T04:51:12;12.30;59.50
84173;DHT22;74302;40.122;18.310;2024-03-22T04:52:56;12.30;59.50
84173;DHT22;74302;40.122;18.310;2024-03-22T04:54:38;12.40;59.50
84173;DHT22;74302;40.122;18.310;2024-03-22T04:56:20;12.40;59.50
84173;DHT22;74302;40.122;18.310;2024-03-22T04:58:05;12.40;59.50
84173;DHT22;74302;40.122;18.310;2024-03-22T04:59:47;12.40;59.50
84173;DHT22;74302;40.122;18.310;2024-03-22T05:01:29;12.40;59.50
84173;DHT22;74302;40.122;18.310;2024-03-22T05:03:12;12.40;59.50
84173;DHT22;74302;40.122;18.310;2024-03-22T05:04:54;12.40;59.50
84173;DHT22;74302;40.122;18.310;2024-03-22T05:06:36;12.40;59.40
84173;DHT22;74302;40.122;18.310;2024-03-22T05:08:20;12.50;59.40
84173;DHT22;74302;40.122;18.310;2024-03-22T05:10:03;12.50;59.40
84173;DHT22;74302;40.122;18.310;2024-03-22T05:11:45;12.50;59.40
84173;DHT22;74302;40.122;18.310;2024-03-22T05:13:33;12.60;59.40
84173;DHT22;74302;40.122;18.310;2024-03-22T05:15:15;12.60;59.30
84173;DHT22;74302;40.122;18.310;2024-03-22T05:16:58;12.70;59.20
84173;DHT22;74302;40.122;18.310;2024-03-22T05:18:41;12.70;59.20
84173;DHT22;74302;40.122;18.310;2024-03-22T05:20:23;12.70;59.20
84173;DHT22;74302;40.122;18.310;2024-03-22T05:22:05;12.70;59.20
84173;DHT22;74302;40.122;18.310;2024-03-22T05:23:49;12.70;59.20
84173;DHT22;74302;40.122;18.310;2024-03-22T05:25:31;12.70;59.20
84173;DHT22;74302;40.122;18.310;2024-03-22T05:27:14;12.80;59.10
84173;DHT22;74302;40.122;18.310;2024-03-22T05:28:57;12.90;59.10
84173;DHT22;74302;40.122;18.310;2024-03-22T05:30:39;12.90;59.10
84173;DHT22;74302;40.122;18.310;2024-03-22T05:32:23;13.00;59.00
84173;DHT22;74302;40.122;18.310;2024-03-22T05:34:05;13.10;59.00
84173;DHT22;74302;40.122;18.310;2024-03-22T05:35:47;13.10;59.00
84173;DHT22;74302;40.122;18.310;2024-03-22T05:37:31;13.10;58.90
84173;DHT22;74302;40.122;18.310;2024-03-22T05:39:13;13.20;58.90
84173;DHT22;74302;40.122;18.310;2024-03-22T05:40:55;13.20;58.80
84173;DHT22;74302;40.122;18.310;2024-03-22T05:42:38;13.20;58.80
84173;DHT22;74302;40.122;18.310;2024-03-22T05:44:22;13.30;58.80
84173;DHT22;74302;40.122;18.310;2024-03-22T05:46:04;13.30;58.80
84173;DHT22;74302;40.122;18.310;2024-03-22T05:47:48;13.30;58.70
84173;DHT22;74302;40.122;18.310;2024-03-22T05:49:31;13.30;58.70
84173;DHT22;74302;40.122;18.310;2024-03-22T05:51:13;13.40;58.70
84173;DHT22;74302;40.122;18.310;2024-03-22T05:52:56;13.40;58.70
84173;DHT22;74302;40.122;18.310;2024-03-22T05:54:39;13.40;58.70
84173;DHT22;74302;40.122;18.310;2024-03-22T05:56:21;13.50;58.70
84173;DHT22;74302;40.122;18.310;2024-03-22T05:58:04;13.50;58.70
84173;DHT22;74302;40.122;18.310;2024-03-22T05:59:48;13.50;58.70
84173;DHT22;74302;40.122;18.310;2024-03-22T06:01:31;13.60;58.70
84173;DHT22;74302;40.122;18.310;2024-03-22T06:03:14;13.70;58.60
84173;DHT22;74302;40.122;18.310;2024-03-22T06:04:57;13.70;58.60
84173;DHT22;74302;40.122;18.310;2024-03-22T06:06:39;13.70;58.60
84173;DHT22;74302;40.122;18.310;2024-03-22T06:08:22;13.70;58.60
84173;DHT22;74302;40.122;18.310;2024-03-22T06:10:05;13.80;58.50
84173;DHT22;74302;40.122;18.310;2024-03-22T06:11:49;13.90;58.50
84173;DHT22;74302;40.122;18.310;2024-03-22T06:13:31;13.90;58.40
84173;DHT22;74302;40.122;18.310;2024-03-22T06:15:16;14.10;58.40
84173;DHT22;74302;40.122;18.310;2024-03-22T06:16:59;14.10;58.30
84173;DHT22;74302;40.122;18.310;2024-03-22T06:18:42;14.20;58.20
84173;DHT22;74302;40.122;18.310;2024-03-22T06:20:24;14.20;58.10
84173;DHT22;74302;40.122;18.310;2024-03-22T06:22:07;14.40;58.10
84173;DHT22;74302;40.122;18.310;2024-03-22T06:23:49;14.50;58.00
84173;DHT22;74302;40.122;18.310;2024-03-22T06:25:33;14.50;57.90
84173;DHT22;74302;40.122;18.310;2024-03-22T06:27:15;14.60;57.90
84173;DHT22;74302;40.122;18.310;2024-03-22T06:28:57;14.70;57.80
84173;DHT22;74302;40.122;18.310;2024-03-22T06:30:42;14.80;57.70
84173;DHT22;74302;40.122;18.310;2024-03-22T06:32:41;15.00;57.60
84173;DHT22;74302;40.122;18.310;2024-03-22T06:34:24;15.30;57.40
84173;DHT22;74302;40.122;18.310;2024-03-22T06:36:07;15.80;56.90
84173;DHT22;74302;40.122;18.310;2024-03-22T06:37:49;16.40;56.30
84173;DHT22;74302;40.122;18.310;2024-03-22T06:39:34;17.00;55.60
84173;DHT22;74302;40.122;18.310;2024-03-22T06:41:17;17.70;54.70
84173;DHT22;74302;40.122;18.310;2024-03-22T06:43:00;18.40;53.90
84173;DHT22;74302;40.122;18.310;2024-03-22T06:44:42;19.20;53.10
84173;DHT22;74302;40.122;18.310;2024-03-22T06:46:26;20.20;52.10
84173;DHT22;74302;40.122;18.310;2024-03-22T06:48:09;21.20;50.90
84173;DHT22;74302;40.122;18.310;2024-03-22T06:49:51;22.20;49.70
84173;DHT22;74302;40.122;18.310;2024-03-22T06:51:33;23.10;48.70
84173;DHT22;74302;40.122;18.310;2024-03-22T06:53:18;24.00;47.70
84173;DHT22;74302;40.122;18.310;2024-03-22T06:55:00;24.80;46.90
84173;DHT22;74302;40.122;18.310;2024-03-22T06:56:43;25.10;46.40
84173;DHT22;74302;40.122;18.310;2024-03-22T06:58:25;24.80;46.50
84173;DHT22;74302;40.122;18.310;2024-03-22T07:00:09;24.40;47.00
84173;DHT22;74302;40.122;18.310;2024-03-22T07:01:53;23.90;47.70
84173;DHT22;74302;40.122;18.310;2024-03-22T07:03:35;23.70;48.30
84173;DHT22;74302;40.122;18.310;2024-03-22T07:05:18;23.50;48.60
84173;DHT22;74302;40.122;18.310;2024-03-22T07:07:00;23.50;48.80
84173;DHT22;74302;40.122;18.310;2024-03-22T07:08:44;23.40;48.90
84173;DHT22;74302;40.122;18.310;2024-03-22T07:10:26;23.50;49.00
84173;DHT22;74302;40.122;18.310;2024-03-22T07:12:10;23.50;49.00
84173;DHT22;74302;40.122;18.310;2024-03-22T07:13:52;23.50;49.00
84173;DHT22;74302;40.122;18.310;2024-03-22T07:15:34;23.60;49.00
84173;DHT22;74302;40.122;18.310;2024-03-22T07:17:19;23.80;48.90
84173;DHT22;74302;40.122;18.310;2024-03-22T07:19:05;24.10;48.60
84173;DHT22;74302;40.122;18.310;2024-03-22T07:20:48;24.70;48.10
84173;DHT22;74302;40.122;18.310;2024-03-22T07:22:30;25.30;47.50
84173;DHT22;74302;40.122;18.310;2024-03-22T07:24:13;25.90;46.70
84173;DHT22;74302;40.122;18.310;2024-03-22T07:25:56;26.60;46.10
84173;DHT22;74302;40.122;18.310;2024-03-22T07:27:39;26.80;45.60
84173;DHT22;74302;40.122;18.310;2024-03-22T07:29:21;26.80;45.60
84173;DHT22;74302;40.122;18.310;2024-03-22T07:31:04;26.70;45.80
84173;DHT22;74302;40.122;18.310;2024-03-22T07:32:48;26.20;46.20
84173;DHT22;74302;40.122;18.310;2024-03-22T07:34:30;25.80;46.70
84173;DHT22;74302;40.122;18.310;2024-03-22T07:36:15;25.30;47.40
84173;DHT22;74302;40.122;18.310;2024-03-22T07:37:58;24.70;48.10
84173;DHT22;74302;40.122;18.310;2024-03-22T07:39:40;24.10;48.80
84173;DHT22;74302;40.122;18.310;2024-03-22T07:41:23;23.60;49.40
84173;DHT22;74302;40.122;18.310;2024-03-22T07:43:05;23.20;49.90
84173;DHT22;74302;40.122;18.310;2024-03-22T07:44:48;22.80;50.40
84173;DHT22;74302;40.122;18.310;2024-03-22T07:46:30;22.50;50.90
84173;DHT22;74302;40.122;18.310;2024-03-22T07:48:14;22.10;51.30
84173;DHT22;74302;40.122;18.310;2024-03-22T07:49:57;21.70;51.70
84173;DHT22;74302;40.122;18.310;2024-03-22T07:51:39;21.40;52.10
84173;DHT22;74302;40.122;18.310;2024-03-22T07:53:22;21.20;52.40
84173;DHT22;74302;40.122;18.310;2024-03-22T07:55:05;20.90;52.70
84173;DHT22;74302;40.122;18.310;2024-03-22T07:56:52;20.80;53.00
84173;DHT22;74302;40.122;18.310;2024-03-22T07:58:35;20.70;53.10
84173;DHT22;74302;40.122;18.310;2024-03-22T08:00:18;20.60;53.20
84173;DHT22;74302;40.122;18.310;2024-03-22T08:02:02;20.50;53.20
84173;DHT22;74302;40.122;18.310;2024-03-22T08:03:46;20.50;53.30
84173;DHT22;74302;40.122;18.310;2024-03-22T08:05:29;20.50;53.30
84173;DHT22;74302;40.122;18.310;2024-03-22T08:07:12;20.40;53.30
84173;DHT22;74302;40.122;18.310;2024-03-22T08:08:54;20.40;53.30
84173;DHT22;74302;40.122;18.310;2024-03-22T08:10:37;20.40;53.30
84173;DHT22;74302;40.122;18.310;2024-03-22T08:12:19;20.40;53.40
84173;DHT22;74302;40.122;18.310;2024-03-22T08:14:02;20.40;53.40
84173;DHT22;74302;40.122;18.310;2024-03-22T08:15:45;20.40;53.40
84173;DHT22;74302;40.122;18.310;2024-03-22T08:17:28;20.40;53.40
84173;DHT22;74302;40.122;18.310;2024-03-22T08:19:12;20.40;53.40
84173;DHT22;74302;40.122;18.310;2024-03-22T08:20:55;20.40;53.50
84173;DHT22;74302;40.122;18.310;2024-03-22T08:22:37;20.40;53.40
84173;DHT22;74302;40.122;18.310;2024-03-22T08:24:20;20.30;53.40
84173;DHT22;74302;40.122;18.310;2024-03-22T08:26:02;20.20;53.50
84173;DHT22;74302;40.122;18.310;2024-03-22T08:27:47;20.10;53.70
84173;DHT22;74302;40.122;18.310;2024-03-22T08:29:29;20.00;53.80
84173;DHT22;74302;40.122;18.310;2024-03-22T08:31:12;19.90;53.90
84173;DHT22;74302;40.122;18.310;2024-03-22T08:32:54;19.90;54.00
84173;DHT22;74302;40.122;18.310;2024-03-22T08:34:38;20.00;54.00
84173;DHT22;74302;40.122;18.310;2024-03-22T08:36:21;19.90;54.10
84173;DHT22;74302;40.122;18.310;2024-03-22T08:38:03;19.80;54.10
84173;DHT22;74302;40.122;18.310;2024-03-22T08:39:51;19.70;54.10
84173;DHT22;74302;40.122;18.310;2024-03-22T08:41:33;19.70;54.30
84173;DHT22;74302;40.122;18.310;2024-03-22T08:43:16;19.70;54.40
84173;DHT22;74302;40.122;18.310;2024-03-22T08:44:59;19.70;54.50
84173;DHT22;74302;40.122;18.310;2024-03-22T08:46:41;19.70;54.40
84173;DHT22;74302;40.122;18.310;2024-03-22T08:48:24;19.70;54.40
84173;DHT22;74302;40.122;18.310;2024-03-22T08:50:08;19.70;54.40
84173;DHT22;74302;40.122;18.310;2024-03-22T08:51:52;19.70;54.40
84173;DHT22;74302;40.122;18.310;2024-03-22T08:53:34;19.70;54.40
84173;DHT22;74302;40.122;18.310;2024-03-22T08:55:16;19.80;54.30
84173;DHT22;74302;40.122;18.310;2024-03-22T08:56:59;19.80;54.30
84173;DHT22;74302;40.122;18.310;2024-03-22T08:58:42;19.90;54.20
84173;DHT22;74302;40.122;18.310;2024-03-22T09:00:25;19.90;54.10
84173;DHT22;74302;40.122;18.310;2024-03-22T09:02:08;20.00;54.10
84173;DHT22;74302;40.122;18.310;2024-03-22T09:03:50;20.10;54.00
84173;DHT22;74302;40.122;18.310;2024-03-22T09:05:35;20.10;54.00
84173;DHT22;74302;40.122;18.310;2024-03-22T09:07:17;20.20;53.90
84173;DHT22;74302;40.122;18.310;2024-03-22T09:08:59;20.30;53.80
84173;DHT22;74302;40.122;18.310;2024-03-22T09:10:43;20.30;53.70
84173;DHT22;74302;40.122;18.310;2024-03-22T09:12:25;20.40;53.70
84173;DHT22;74302;40.122;18.310;2024-03-22T09:14:08;20.50;53.60
84173;DHT22;74302;40.122;18.310;2024-03-22T09:15:56;20.60;53.50
84173;DHT22;74302;40.122;18.310;2024-03-22T09:17:39;20.70;53.50
84173;DHT22;74302;40.122;18.310;2024-03-22T09:19:22;20.80;53.30
84173;DHT22;74302;40.122;18.310;2024-03-22T09:21:07;20.80;53.30
84173;DHT22;74302;40.122;18.310;2024-03-22T09:22:50;20.90;53.10
84173;DHT22;74302;40.122;18.310;2024-03-22T09:24:33;21.00;53.00
84173;DHT22;74302;40.122;18.310;2024-03-22T09:26:16;21.00;52.90
84173;DHT22;74302;40.122;18.310;2024-03-22T09:27:59;21.10;52.80
84173;DHT22;74302;40.122;18.310;2024-03-22T09:29:41;21.10;52.70
84173;DHT22;74302;40.122;18.310;2024-03-22T09:31:25;21.20;52.70
84173;DHT22;74302;40.122;18.310;2024-03-22T09:33:09;21.20;52.60
84173;DHT22;74302;40.122;18.310;2024-03-22T09:34:51;21.30;52.50
84173;DHT22;74302;40.122;18.310;2024-03-22T09:36:34;21.30;52.30
84173;DHT22;74302;40.122;18.310;2024-03-22T09:38:17;21.20;52.40
84173;DHT22;74302;40.122;18.310;2024-03-22T09:40:00;21.20;52.50
84173;DHT22;74302;40.122;18.310;2024-03-22T09:41:43;21.00;52.50
84173;DHT22;74302;40.122;18.310;2024-03-22T09:43:27;20.80;52.60
84173;DHT22;74302;40.122;18.310;2024-03-22T09:45:10;20.70;52.80
84173;DHT22;74302;40.122;18.310;2024-03-22T09:46:54;20.60;52.90
84173;DHT22;74302;40.122;18.310;2024-03-22T09:48:37;20.40;53.00
84173;DHT22;74302;40.122;18.310;2024-03-22T09:50:21;20.30;53.20
84173;DHT22;74302;40.122;18.310;2024-03-22T09:52:05;20.20;53.30
84173;DHT22;74302;40.122;18.310;2024-03-22T09:53:49;20.20;53.40
84173;DHT22;74302;40.122;18.310;2024-03-22T09:55:35;20.10;53.50
84173;DHT22;74302;40.122;18.310;2024-03-22T09:57:17;20.00;53.50
84173;DHT22;74302;40.122;18.310;2024-03-22T09:59:00;20.00;53.50
84173;DHT22;74302;40.122;18.310;2024-03-22T10:00:43;20.00;53.40
84173;DHT22;74302;40.122;18.310;2024-03-22T10:02:26;19.90;53.40
84173;DHT22;74302;40.122;18.310;2024-03-22T10:04:08;19.90;53.50
84173;DHT22;74302;40.122;18.310;2024-03-22T10:05:51;19.90;53.40
84173;DHT22;74302;40.122;18.310;2024-03-22T10:07:35;19.90;53.40
84173;DHT22;74302;40.122;18.310;2024-03-22T10:09:17;19.90;53.40
84173;DHT22;74302;40.122;18.310;2024-03-22T10:11:02;19.90;53.50
84173;DHT22;74302;40.122;18.310;2024-03-22T10:12:45;19.90;53.50
84173;DHT22;74302;40.122;18.310;2024-03-22T10:14:27;19.80;53.50
84173;DHT22;74302;40.122;18.310;2024-03-22T10:16:11;19.80;53.50
84173;DHT22;74302;40.122;18.310;2024-03-22T10:17:53;19.80;53.60
84173;DHT22;74302;40.122;18.310;2024-03-22T10:19:37;19.70;53.60
84173;DHT22;74302;40.122;18.310;2024-03-22T10:21:22;19.80;53.60
84173;DHT22;74302;40.122;18.310;2024-03-22T10:23:07;19.70;53.60
84173;DHT22;74302;40.122;18.310;2024-03-22T10:24:51;19.70;53.60
84173;DHT22;74302;40.122;18.310;2024-03-22T10:26:34;19.70;53.60
84173;DHT22;74302;40.122;18.310;2024-03-22T10:28:17;19.70;53.60
84173;DHT22;74302;40.122;18.310;2024-03-22T10:30:00;19.70;53.60
84173;DHT22;74302;40.122;18.310;2024-03-22T10:31:44;19.70;53.60
84173;DHT22;74302;40.122;18.310;2024-03-22T10:33:29;19.70;53.60
84173;DHT22;74302;40.122;18.310;2024-03-22T10:35:13;19.60;53.70
84173;DHT22;74302;40.122;18.310;2024-03-22T10:36:56;19.50;53.70
84173;DHT22;74302;40.122;18.310;2024-03-22T10:38:41;19.50;53.80
84173;DHT22;74302;40.122;18.310;2024-03-22T10:40:23;19.50;53.90